Main page
METAR-TAF:

METAR-TAF

Airports :

Treviso, Italy

Treviso Airport

latitude: 45-39N, longitude: 012-11E, elevation: 18 m

Current weather observation

The report was made 38 minutes ago, at 18:50 UTC
Calm wind
Temperature 14°C
Humidity 94%
Pressure 1019 hPa
Visibility: 3000 m
Scattered clouds at a height of 3000 ft
mist

METAR: LIPH 211850Z 00000KT 3000 BR SCT030 14/13 Q1019

Time: 21:28 (19:28 UTC)

Forecast

The report was made 2 hours and 28 minutes ago, at 17:00 UTC
Forecast valid from 21 at 18 UTC to 22 at 18 UTC
Wind 5 kt from variable directions
Visibility: 3000 m
Broken clouds at a height of 3000 ft
mist
Temporary
from 21 at 22 UTC to 22 at 06 UTC
Visibility: 1500 m
Becoming
from 22 at 08 UTC to 22 at 10 UTC
Visibility: 6000 m
Temporary
from 22 at 12 UTC to 22 at 20 UTC
rain

TAF: LIPH 211700Z 2118/2218 VRB05KT 3000 BR BKN030 TEMPO 2122/2206 1500 BECMG 2208/2210 6000 TEMPO 2212/2220 RA

Weather observations and forecasts of more than 4000 airports (METAR and TAF reports).

The available stations are represented by yellow and red dots on the map.

Hover mouse over dot to see the name of the station.

Then click to see weather observations and forecasts.

To change the map : click on the green buttons with a black cross to zoom in, on the green button with a dash to zoom out, or on the green arrows for adjacent maps.


METAR-TAF: